SBPP/PMG METAR and TAF weather

Enter ICAO airport designator
Station Type Date Time Source
SBPP METAR 2020/01/22 22:00 UTC NOAA

SBPP 222200Z 18004KT 9999 SCT010 24/22 Q1005


Station Type Date Time Source
SBPP Decoded METAR 2020/01/22 22:00 UTC NOAA

Ponta Pora Intl , Brazil (SBPP) 22-33S 055-42W
Jan 22, 2020 - 05:00 PM EST / 2020.01.22 2200 UTC
Wind: from the S (180 degrees) at 5 MPH (4 KT):0
Visibility: greater than 7 mile(s):0
Sky conditions: partly cloudy
Temperature: 75 F (24 C)
Dew Point: 71 F (22 C)
Relative Humidity: 88%
Pressure (altimeter): 29.68 in. Hg (1005 hPa)
ob: SBPP 222200Z 18004KT 9999 SCT010 24/22 Q1005
cycle: 22

Station Type Date Time Source
SBPP TAF 2020/01/23 06:03 UTC NOAA

TAF SBPP 230130Z 2306/2406 18007KT 9999 BKN015 TN20/2308Z TX23/2318Z
TEMPO 2306/2312 0500 RA FG VV001
BECMG 2312/2314 13008KT BKN010
BECMG 2316/2318 SCT015
BECMG 2322/2324 10005KT SCT010
RMK PEB

Example: see airport list